sensor_id;sensor_type;location;lat;lon;timestamp;temperature;humidity
64718;DHT22;62506;46.070;14.492;2022-11-20T00:02:23;22.20;64.30
64718;DHT22;62506;46.070;14.492;2022-11-20T00:04:48;22.10;64.20
64718;DHT22;62506;46.070;14.492;2022-11-20T00:07:13;22.10;64.20
64718;DHT22;62506;46.070;14.492;2022-11-20T00:09:39;22.10;64.30
64718;DHT22;62506;46.070;14.492;2022-11-20T00:12:04;22.10;64.30
64718;DHT22;62506;46.070;14.492;2022-11-20T00:14:30;22.10;64.30
64718;DHT22;62506;46.070;14.492;2022-11-20T00:16:55;22.10;64.30
64718;DHT22;62506;46.070;14.492;2022-11-20T00:19:21;22.10;64.30
64718;DHT22;62506;46.070;14.492;2022-11-20T00:21:46;22.10;64.30
64718;DHT22;62506;46.070;14.492;2022-11-20T00:24:12;22.10;64.30
64718;DHT22;62506;46.070;14.492;2022-11-20T00:26:37;22.10;64.40
64718;DHT22;62506;46.070;14.492;2022-11-20T00:29:03;22.10;64.50
64718;DHT22;62506;46.070;14.492;2022-11-20T00:31:29;22.10;64.60
64718;DHT22;62506;46.070;14.492;2022-11-20T00:33:54;22.10;64.60
64718;DHT22;62506;46.070;14.492;2022-11-20T00:36:24;22.10;64.60
64718;DHT22;62506;46.070;14.492;2022-11-20T00:38:53;22.10;64.70
64718;DHT22;62506;46.070;14.492;2022-11-20T00:41:19;22.10;64.70
64718;DHT22;62506;46.070;14.492;2022-11-20T00:43:44;22.10;64.80
64718;DHT22;62506;46.070;14.492;2022-11-20T00:46:12;22.10;64.90
64718;DHT22;62506;46.070;14.492;2022-11-20T00:48:38;22.00;64.90
64718;DHT22;62506;46.070;14.492;2022-11-20T00:51:03;22.00;64.90
64718;DHT22;62506;46.070;14.492;2022-11-20T00:53:29;22.00;65.00
64718;DHT22;62506;46.070;14.492;2022-11-20T00:55:55;22.00;65.00
64718;DHT22;62506;46.070;14.492;2022-11-20T00:58:21;22.00;65.10
64718;DHT22;62506;46.070;14.492;2022-11-20T01:00:47;22.00;65.20
64718;DHT22;62506;46.070;14.492;2022-11-20T01:03:13;22.00;65.20
64718;DHT22;62506;46.070;14.492;2022-11-20T01:05:38;22.00;65.20
64718;DHT22;62506;46.070;14.492;2022-11-20T01:08:04;22.00;65.20
64718;DHT22;62506;46.070;14.492;2022-11-20T01:10:29;22.00;65.50
64718;DHT22;62506;46.070;14.492;2022-11-20T01:12:55;22.00;65.30
64718;DHT22;62506;46.070;14.492;2022-11-20T01:15:39;22.00;65.20
64718;DHT22;62506;46.070;14.492;2022-11-20T01:18:04;22.00;65.40
64718;DHT22;62506;46.070;14.492;2022-11-20T01:20:33;22.00;65.40
64718;DHT22;62506;46.070;14.492;2022-11-20T01:22:59;22.00;65.40
64718;DHT22;62506;46.070;14.492;2022-11-20T01:25:24;22.00;65.50
64718;DHT22;62506;46.070;14.492;2022-11-20T01:27:50;22.00;65.50
64718;DHT22;62506;46.070;14.492;2022-11-20T01:30:15;21.90;65.50
64718;DHT22;62506;46.070;14.492;2022-11-20T01:32:41;22.00;65.60
64718;DHT22;62506;46.070;14.492;2022-11-20T01:35:06;21.90;65.50
64718;DHT22;62506;46.070;14.492;2022-11-20T01:37:32;21.90;65.60
64718;DHT22;62506;46.070;14.492;2022-11-20T01:39:57;21.90;65.50
64718;DHT22;62506;46.070;14.492;2022-11-20T01:42:23;21.90;65.60
64718;DHT22;62506;46.070;14.492;2022-11-20T01:47:51;21.90;65.50
64718;DHT22;62506;46.070;14.492;2022-11-20T01:50:18;21.90;65.50
64718;DHT22;62506;46.070;14.492;2022-11-20T01:52:51;21.90;65.70
64718;DHT22;62506;46.070;14.492;2022-11-20T01:55:19;21.90;65.70
64718;DHT22;62506;46.070;14.492;2022-11-20T01:57:46;21.90;65.70
64718;DHT22;62506;46.070;14.492;2022-11-20T02:00:14;21.90;65.60
64718;DHT22;62506;46.070;14.492;2022-11-20T02:02:50;21.90;65.60
64718;DHT22;62506;46.070;14.492;2022-11-20T02:05:35;21.90;65.50
64718;DHT22;62506;46.070;14.492;2022-11-20T02:08:02;21.90;65.40
64718;DHT22;62506;46.070;14.492;2022-11-20T02:10:28;21.90;65.30
64718;DHT22;62506;46.070;14.492;2022-11-20T02:12:54;21.90;65.40
64718;DHT22;62506;46.070;14.492;2022-11-20T02:15:38;22.00;65.50
64718;DHT22;62506;46.070;14.492;2022-11-20T02:18:05;21.90;65.30
64718;DHT22;62506;46.070;14.492;2022-11-20T02:20:31;21.90;65.30
64718;DHT22;62506;46.070;14.492;2022-11-20T02:22:58;21.90;65.40
64718;DHT22;62506;46.070;14.492;2022-11-20T02:25:24;21.90;65.40
64718;DHT22;62506;46.070;14.492;2022-11-20T02:27:51;21.90;65.20
64718;DHT22;62506;46.070;14.492;2022-11-20T02:30:17;21.90;65.30
64718;DHT22;62506;46.070;14.492;2022-11-20T02:32:42;21.90;65.30
64718;DHT22;62506;46.070;14.492;2022-11-20T02:37:34;21.90;65.40
64718;DHT22;62506;46.070;14.492;2022-11-20T02:40:00;21.90;65.30
64718;DHT22;62506;46.070;14.492;2022-11-20T02:42:26;21.90;65.30
64718;DHT22;62506;46.070;14.492;2022-11-20T02:44:51;21.90;65.20
64718;DHT22;62506;46.070;14.492;2022-11-20T02:47:17;21.90;65.20
64718;DHT22;62506;46.070;14.492;2022-11-20T02:49:42;21.90;65.20
64718;DHT22;62506;46.070;14.492;2022-11-20T02:52:08;21.90;65.20
64718;DHT22;62506;46.070;14.492;2022-11-20T02:54:33;21.90;65.50
64718;DHT22;62506;46.070;14.492;2022-11-20T02:56:59;21.90;65.10
64718;DHT22;62506;46.070;14.492;2022-11-20T02:59:24;21.90;65.10
64718;DHT22;62506;46.070;14.492;2022-11-20T03:01:50;21.90;65.00
64718;DHT22;62506;46.070;14.492;2022-11-20T03:04:15;21.90;65.00
64718;DHT22;62506;46.070;14.492;2022-11-20T03:06:41;21.90;65.00
64718;DHT22;62506;46.070;14.492;2022-11-20T03:09:06;21.90;65.00
64718;DHT22;62506;46.070;14.492;2022-11-20T03:11:32;21.90;65.00
64718;DHT22;62506;46.070;14.492;2022-11-20T03:14:01;21.90;65.00
64718;DHT22;62506;46.070;14.492;2022-11-20T03:16:26;21.90;64.90
64718;DHT22;62506;46.070;14.492;2022-11-20T03:18:52;21.90;64.80
64718;DHT22;62506;46.070;14.492;2022-11-20T03:21:17;21.90;64.80
64718;DHT22;62506;46.070;14.492;2022-11-20T03:23:43;21.90;64.70
64718;DHT22;62506;46.070;14.492;2022-11-20T03:28:34;21.90;64.70
64718;DHT22;62506;46.070;14.492;2022-11-20T03:31:04;21.90;64.80
64718;DHT22;62506;46.070;14.492;2022-11-20T03:33:30;21.80;64.70
64718;DHT22;62506;46.070;14.492;2022-11-20T03:36:00;21.90;64.70
64718;DHT22;62506;46.070;14.492;2022-11-20T03:38:25;21.80;64.70
64718;DHT22;62506;46.070;14.492;2022-11-20T03:40:57;21.80;64.60
64718;DHT22;62506;46.070;14.492;2022-11-20T03:43:23;21.80;64.60
64718;DHT22;62506;46.070;14.492;2022-11-20T03:45:48;21.80;64.70
64718;DHT22;62506;46.070;14.492;2022-11-20T03:48:14;21.80;64.70
64718;DHT22;62506;46.070;14.492;2022-11-20T03:50:39;21.90;64.70
64718;DHT22;62506;46.070;14.492;2022-11-20T03:53:05;21.80;64.70
64718;DHT22;62506;46.070;14.492;2022-11-20T03:55:30;21.80;64.90
64718;DHT22;62506;46.070;14.492;2022-11-20T03:57:56;21.80;65.00
64718;DHT22;62506;46.070;14.492;2022-11-20T04:00:21;21.80;65.00
64718;DHT22;62506;46.070;14.492;2022-11-20T04:02:47;21.80;65.00
64718;DHT22;62506;46.070;14.492;2022-11-20T04:05:12;21.80;65.00
64718;DHT22;62506;46.070;14.492;2022-11-20T04:07:38;21.80;65.00
64718;DHT22;62506;46.070;14.492;2022-11-20T04:10:03;21.80;64.90
64718;DHT22;62506;46.070;14.492;2022-11-20T04:12:31;21.80;65.00
64718;DHT22;62506;46.070;14.492;2022-11-20T04:14:56;21.80;65.00
64718;DHT22;62506;46.070;14.492;2022-11-20T04:17:22;21.80;65.00
64718;DHT22;62506;46.070;14.492;2022-11-20T04:19:47;21.70;64.90
64718;DHT22;62506;46.070;14.492;2022-11-20T04:22:13;21.70;64.90
64718;DHT22;62506;46.070;14.492;2022-11-20T04:24:38;21.80;65.00
64718;DHT22;62506;46.070;14.492;2022-11-20T04:27:04;21.70;65.00
64718;DHT22;62506;46.070;14.492;2022-11-20T04:29:29;21.70;65.00
64718;DHT22;62506;46.070;14.492;2022-11-20T04:31:55;21.80;65.00
64718;DHT22;62506;46.070;14.492;2022-11-20T04:34:20;21.70;64.90
64718;DHT22;62506;46.070;14.492;2022-11-20T04:36:46;21.80;65.00
64718;DHT22;62506;46.070;14.492;2022-11-20T04:39:12;21.70;65.00
64718;DHT22;62506;46.070;14.492;2022-11-20T04:41:39;21.80;65.00
64718;DHT22;62506;46.070;14.492;2022-11-20T04:44:05;21.70;64.80
64718;DHT22;62506;46.070;14.492;2022-11-20T04:46:38;21.70;64.70
64718;DHT22;62506;46.070;14.492;2022-11-20T04:49:04;21.70;64.60
64718;DHT22;62506;46.070;14.492;2022-11-20T04:51:30;21.70;64.70
64718;DHT22;62506;46.070;14.492;2022-11-20T04:53:56;21.70;64.70
64718;DHT22;62506;46.070;14.492;2022-11-20T04:56:21;21.70;64.70
64718;DHT22;62506;46.070;14.492;2022-11-20T04:58:47;21.70;64.50
64718;DHT22;62506;46.070;14.492;2022-11-20T05:01:13;21.70;64.50
64718;DHT22;62506;46.070;14.492;2022-11-20T05:03:39;21.80;64.50
64718;DHT22;62506;46.070;14.492;2022-11-20T05:06:05;21.80;64.50
64718;DHT22;62506;46.070;14.492;2022-11-20T05:08:31;21.80;64.40
64718;DHT22;62506;46.070;14.492;2022-11-20T05:11:04;21.70;64.50
64718;DHT22;62506;46.070;14.492;2022-11-20T05:13:30;21.70;64.60
64718;DHT22;62506;46.070;14.492;2022-11-20T05:16:00;21.80;64.50
64718;DHT22;62506;46.070;14.492;2022-11-20T05:18:26;21.70;64.70
64718;DHT22;62506;46.070;14.492;2022-11-20T05:20:54;21.70;64.70
64718;DHT22;62506;46.070;14.492;2022-11-20T05:23:20;21.70;64.80
64718;DHT22;62506;46.070;14.492;2022-11-20T05:25:45;21.70;64.70
64718;DHT22;62506;46.070;14.492;2022-11-20T05:28:11;21.80;64.90
64718;DHT22;62506;46.070;14.492;2022-11-20T05:30:36;21.70;64.70
64718;DHT22;62506;46.070;14.492;2022-11-20T05:33:02;21.70;64.80
64718;DHT22;62506;46.070;14.492;2022-11-20T05:35:27;21.70;64.70
64718;DHT22;62506;46.070;14.492;2022-11-20T05:37:53;21.70;64.80
64718;DHT22;62506;46.070;14.492;2022-11-20T05:40:18;21.70;64.80
64718;DHT22;62506;46.070;14.492;2022-11-20T05:42:44;21.70;64.90
64718;DHT22;62506;46.070;14.492;2022-11-20T05:45:09;21.70;64.80
64718;DHT22;62506;46.070;14.492;2022-11-20T05:47:35;21.70;64.90
64718;DHT22;62506;46.070;14.492;2022-11-20T05:50:01;21.70;64.90
64718;DHT22;62506;46.070;14.492;2022-11-20T05:52:29;21.70;64.80
64718;DHT22;62506;46.070;14.492;2022-11-20T05:54:55;21.70;64.70
64718;DHT22;62506;46.070;14.492;2022-11-20T05:57:21;21.70;64.70
64718;DHT22;62506;46.070;14.492;2022-11-20T05:59:46;21.70;64.80
64718;DHT22;62506;46.070;14.492;2022-11-20T06:02:12;21.70;64.90
64718;DHT22;62506;46.070;14.492;2022-11-20T06:04:38;21.70;64.80
64718;DHT22;62506;46.070;14.492;2022-11-20T06:07:04;21.70;64.80
64718;DHT22;62506;46.070;14.492;2022-11-20T06:09:30;21.70;64.80
64718;DHT22;62506;46.070;14.492;2022-11-20T06:11:55;21.70;64.80
64718;DHT22;62506;46.070;14.492;2022-11-20T06:14:21;21.70;64.70
64718;DHT22;62506;46.070;14.492;2022-11-20T06:16:46;21.70;64.50
64718;DHT22;62506;46.070;14.492;2022-11-20T06:19:12;21.70;64.40
64718;DHT22;62506;46.070;14.492;2022-11-20T06:21:37;21.70;64.30
64718;DHT22;62506;46.070;14.492;2022-11-20T06:24:03;21.70;64.10
64718;DHT22;62506;46.070;14.492;2022-11-20T06:26:28;21.70;63.90
64718;DHT22;62506;46.070;14.492;2022-11-20T06:28:55;21.70;63.90
64718;DHT22;62506;46.070;14.492;2022-11-20T06:31:22;21.70;63.80
64718;DHT22;62506;46.070;14.492;2022-11-20T06:33:48;21.70;63.70
64718;DHT22;62506;46.070;14.492;2022-11-20T06:36:14;21.80;63.80
64718;DHT22;62506;46.070;14.492;2022-11-20T06:38:40;21.80;63.70
64718;DHT22;62506;46.070;14.492;2022-11-20T06:41:06;21.80;63.70
64718;DHT22;62506;46.070;14.492;2022-11-20T06:43:32;21.80;63.60
64718;DHT22;62506;46.070;14.492;2022-11-20T06:45:57;21.80;63.50
64718;DHT22;62506;46.070;14.492;2022-11-20T06:48:23;21.80;63.70
64718;DHT22;62506;46.070;14.492;2022-11-20T06:50:49;21.90;63.50
64718;DHT22;62506;46.070;14.492;2022-11-20T06:53:15;21.90;63.20
64718;DHT22;62506;46.070;14.492;2022-11-20T06:55:44;21.90;64.00
64718;DHT22;62506;46.070;14.492;2022-11-20T06:58:10;21.90;64.60
64718;DHT22;62506;46.070;14.492;2022-11-20T07:00:35;21.90;64.50
64718;DHT22;62506;46.070;14.492;2022-11-20T07:03:05;22.00;64.40
64718;DHT22;62506;46.070;14.492;2022-11-20T07:05:30;22.00;64.10
64718;DHT22;62506;46.070;14.492;2022-11-20T07:07:56;22.10;64.10
64718;DHT22;62506;46.070;14.492;2022-11-20T07:10:22;22.10;63.80
64718;DHT22;62506;46.070;14.492;2022-11-20T07:12:51;22.20;64.20
64718;DHT22;62506;46.070;14.492;2022-11-20T07:15:17;22.30;64.10
64718;DHT22;62506;46.070;14.492;2022-11-20T07:17:42;22.30;63.60
64718;DHT22;62506;46.070;14.492;2022-11-20T07:20:08;22.40;63.20
64718;DHT22;62506;46.070;14.492;2022-11-20T07:22:33;22.40;63.10
64718;DHT22;62506;46.070;14.492;2022-11-20T07:24:59;22.40;63.00
64718;DHT22;62506;46.070;14.492;2022-11-20T07:27:24;22.50;63.10
64718;DHT22;62506;46.070;14.492;2022-11-20T07:29:50;22.50;63.20
64718;DHT22;62506;46.070;14.492;2022-11-20T07:32:15;22.50;63.00
64718;DHT22;62506;46.070;14.492;2022-11-20T07:34:41;22.50;63.20
64718;DHT22;62506;46.070;14.492;2022-11-20T07:37:06;22.50;62.50
64718;DHT22;62506;46.070;14.492;2022-11-20T07:39:32;22.50;61.20
64718;DHT22;62506;46.070;14.492;2022-11-20T07:41:58;22.40;61.80
64718;DHT22;62506;46.070;14.492;2022-11-20T07:44:23;22.40;62.10
64718;DHT22;62506;46.070;14.492;2022-11-20T07:46:48;22.40;61.30
64718;DHT22;62506;46.070;14.492;2022-11-20T07:49:14;22.40;59.90
64718;DHT22;62506;46.070;14.492;2022-11-20T07:51:39;22.30;60.00
64718;DHT22;62506;46.070;14.492;2022-11-20T07:54:05;22.30;60.80
64718;DHT22;62506;46.070;14.492;2022-11-20T07:56:33;22.30;61.10
64718;DHT22;62506;46.070;14.492;2022-11-20T07:58:59;22.30;60.90
64718;DHT22;62506;46.070;14.492;2022-11-20T08:01:25;22.40;61.10
64718;DHT22;62506;46.070;14.492;2022-11-20T08:03:50;22.40;61.30
64718;DHT22;62506;46.070;14.492;2022-11-20T08:06:16;22.30;60.00
64718;DHT22;62506;46.070;14.492;2022-11-20T08:08:42;22.40;60.80
64718;DHT22;62506;46.070;14.492;2022-11-20T08:11:08;22.30;61.30
64718;DHT22;62506;46.070;14.492;2022-11-20T08:13:52;22.30;62.10
64718;DHT22;62506;46.070;14.492;2022-11-20T08:16:36;22.30;61.20
64718;DHT22;62506;46.070;14.492;2022-11-20T08:19:01;22.30;61.30
64718;DHT22;62506;46.070;14.492;2022-11-20T08:21:27;22.30;61.00
64718;DHT22;62506;46.070;14.492;2022-11-20T08:23:52;22.20;61.10
64718;DHT22;62506;46.070;14.492;2022-11-20T08:26:18;22.20;61.60
64718;DHT22;62506;46.070;14.492;2022-11-20T08:28:43;22.20;61.80
64718;DHT22;62506;46.070;14.492;2022-11-20T08:31:09;22.20;61.60
64718;DHT22;62506;46.070;14.492;2022-11-20T08:33:35;22.20;61.60
64718;DHT22;62506;46.070;14.492;2022-11-20T08:36:03;22.20;62.10
64718;DHT22;62506;46.070;14.492;2022-11-20T08:38:29;22.30;63.30
64718;DHT22;62506;46.070;14.492;2022-11-20T08:40:59;22.30;62.00
64718;DHT22;62506;46.070;14.492;2022-11-20T08:43:43;22.30;62.30
64718;DHT22;62506;46.070;14.492;2022-11-20T08:46:10;22.30;62.00
64718;DHT22;62506;46.070;14.492;2022-11-20T08:48:36;22.30;62.10
64718;DHT22;62506;46.070;14.492;2022-11-20T08:51:01;22.20;61.90
64718;DHT22;62506;46.070;14.492;2022-11-20T08:53:27;22.30;62.10
64718;DHT22;62506;46.070;14.492;2022-11-20T08:55:53;22.20;62.10
64718;DHT22;62506;46.070;14.492;2022-11-20T08:58:19;22.20;62.20
64718;DHT22;62506;46.070;14.492;2022-11-20T09:00:45;22.20;62.30
64718;DHT22;62506;46.070;14.492;2022-11-20T09:03:10;22.20;62.40
64718;DHT22;62506;46.070;14.492;2022-11-20T09:05:38;22.20;62.60
64718;DHT22;62506;46.070;14.492;2022-11-20T09:08:04;22.20;62.70
64718;DHT22;62506;46.070;14.492;2022-11-20T09:10:29;22.20;62.70
64718;DHT22;62506;46.070;14.492;2022-11-20T09:12:56;22.20;62.90
64718;DHT22;62506;46.070;14.492;2022-11-20T09:16:05;22.20;63.10
64718;DHT22;62506;46.070;14.492;2022-11-20T09:19:10;22.20;63.10
64718;DHT22;62506;46.070;14.492;2022-11-20T09:25:13;22.20;62.60
64718;DHT22;62506;46.070;14.492;2022-11-20T09:28:18;22.20;62.90
64718;DHT22;62506;46.070;14.492;2022-11-20T09:31:37;22.30;62.80
64718;DHT22;62506;46.070;14.492;2022-11-20T09:34:38;22.30;62.60
64718;DHT22;62506;46.070;14.492;2022-11-20T09:40:16;22.40;62.70
64718;DHT22;62506;46.070;14.492;2022-11-20T09:53:13;22.40;61.80
64718;DHT22;62506;46.070;14.492;2022-11-20T09:55:45;22.40;61.80
64718;DHT22;62506;46.070;14.492;2022-11-20T09:58:16;22.40;61.10
64718;DHT22;62506;46.070;14.492;2022-11-20T10:00:44;22.40;59.90
64718;DHT22;62506;46.070;14.492;2022-11-20T10:03:16;22.40;60.30
64718;DHT22;62506;46.070;14.492;2022-11-20T10:06:05;22.40;60.60
64718;DHT22;62506;46.070;14.492;2022-11-20T10:09:13;22.50;60.60
64718;DHT22;62506;46.070;14.492;2022-11-20T10:11:56;22.50;60.60
64718;DHT22;62506;46.070;14.492;2022-11-20T10:26:58;22.50;60.10
64718;DHT22;62506;46.070;14.492;2022-11-20T10:29:42;22.50;60.20
64718;DHT22;62506;46.070;14.492;2022-11-20T10:32:40;22.50;60.00
64718;DHT22;62506;46.070;14.492;2022-11-20T10:35:52;22.50;60.00
64718;DHT22;62506;46.070;14.492;2022-11-20T10:41:49;22.50;60.10
64718;DHT22;62506;46.070;14.492;2022-11-20T10:44:17;22.50;60.60
64718;DHT22;62506;46.070;14.492;2022-11-20T10:47:20;22.50;60.60
64718;DHT22;62506;46.070;14.492;2022-11-20T10:49:49;22.50;60.00
64718;DHT22;62506;46.070;14.492;2022-11-20T11:01:39;22.40;59.20
64718;DHT22;62506;46.070;14.492;2022-11-20T11:04:07;22.40;59.90
64718;DHT22;62506;46.070;14.492;2022-11-20T11:06:43;22.40;60.20
64718;DHT22;62506;46.070;14.492;2022-11-20T11:09:11;22.40;60.10
64718;DHT22;62506;46.070;14.492;2022-11-20T11:11:38;22.40;60.00
64718;DHT22;62506;46.070;14.492;2022-11-20T11:14:07;22.40;60.20
64718;DHT22;62506;46.070;14.492;2022-11-20T11:16:33;22.40;60.30
64718;DHT22;62506;46.070;14.492;2022-11-20T11:19:06;22.40;60.40
64718;DHT22;62506;46.070;14.492;2022-11-20T11:21:32;22.30;61.40
64718;DHT22;62506;46.070;14.492;2022-11-20T11:23:59;22.30;61.30
64718;DHT22;62506;46.070;14.492;2022-11-20T11:26:26;22.30;62.60
64718;DHT22;62506;46.070;14.492;2022-11-20T11:29:32;22.30;62.60
64718;DHT22;62506;46.070;14.492;2022-11-20T11:32:37;22.30;61.10
64718;DHT22;62506;46.070;14.492;2022-11-20T11:35:49;22.20;61.00
64718;DHT22;62506;46.070;14.492;2022-11-20T11:38:54;22.20;60.80
64718;DHT22;62506;46.070;14.492;2022-11-20T11:42:00;22.20;60.80
64718;DHT22;62506;46.070;14.492;2022-11-20T11:45:01;22.20;60.80
64718;DHT22;62506;46.070;14.492;2022-11-20T11:47:47;22.20;60.80
64718;DHT22;62506;46.070;14.492;2022-11-20T11:50:47;22.20;60.80
64718;DHT22;62506;46.070;14.492;2022-11-20T11:53:51;22.10;60.70
64718;DHT22;62506;46.070;14.492;2022-11-20T11:57:14;22.10;60.60
64718;DHT22;62506;46.070;14.492;2022-11-20T12:00:22;22.10;60.70
64718;DHT22;62506;46.070;14.492;2022-11-20T12:03:37;22.10;60.80
64718;DHT22;62506;46.070;14.492;2022-11-20T12:06:42;22.10;60.90
64718;DHT22;62506;46.070;14.492;2022-11-20T12:09:50;22.00;60.90
64718;DHT22;62506;46.070;14.492;2022-11-20T12:13:01;22.00;60.90
64718;DHT22;62506;46.070;14.492;2022-11-20T12:16:02;22.00;61.00
64718;DHT22;62506;46.070;14.492;2022-11-20T12:19:11;22.00;61.00
64718;DHT22;62506;46.070;14.492;2022-11-20T12:33:46;21.90;61.10
64718;DHT22;62506;46.070;14.492;2022-11-20T12:45:02;21.90;61.30
64718;DHT22;62506;46.070;14.492;2022-11-20T12:48:18;21.80;61.20
64718;DHT22;62506;46.070;14.492;2022-11-20T13:05:58;21.80;61.10
64718;DHT22;62506;46.070;14.492;2022-11-20T13:09:00;21.80;61.00
64718;DHT22;62506;46.070;14.492;2022-11-20T13:12:10;21.80;61.00
64718;DHT22;62506;46.070;14.492;2022-11-20T13:18:13;21.80;61.00
64718;DHT22;62506;46.070;14.492;2022-11-20T13:21:20;21.80;61.00
64718;DHT22;62506;46.070;14.492;2022-11-20T13:24:26;21.80;61.10
64718;DHT22;62506;46.070;14.492;2022-11-20T13:30:11;21.80;61.00
64718;DHT22;62506;46.070;14.492;2022-11-20T13:33:08;21.80;61.10
64718;DHT22;62506;46.070;14.492;2022-11-20T13:36:02;21.80;61.10
64718;DHT22;62506;46.070;14.492;2022-11-20T13:39:04;21.80;61.10
64718;DHT22;62506;46.070;14.492;2022-11-20T13:45:00;21.80;61.10
64718;DHT22;62506;46.070;14.492;2022-11-20T13:48:04;21.70;61.00
64718;DHT22;62506;46.070;14.492;2022-11-20T13:51:11;21.70;61.10
64718;DHT22;62506;46.070;14.492;2022-11-20T14:02:28;21.80;62.20
64718;DHT22;62506;46.070;14.492;2022-11-20T14:05:19;21.80;62.30
64718;DHT22;62506;46.070;14.492;2022-11-20T14:08:06;21.70;62.30
64718;DHT22;62506;46.070;14.492;2022-11-20T14:11:16;21.80;62.40
64718;DHT22;62506;46.070;14.492;2022-11-20T14:16:50;21.70;62.50
64718;DHT22;62506;46.070;14.492;2022-11-20T14:19:58;21.70;62.50
64718;DHT22;62506;46.070;14.492;2022-11-20T14:22:50;21.70;62.50
64718;DHT22;62506;46.070;14.492;2022-11-20T14:25:36;21.70;62.50
64718;DHT22;62506;46.070;14.492;2022-11-20T14:28:26;21.70;62.50
64718;DHT22;62506;46.070;14.492;2022-11-20T14:43:27;22.00;61.50
64718;DHT22;62506;46.070;14.492;2022-11-20T14:49:42;22.20;61.00
64718;DHT22;62506;46.070;14.492;2022-11-20T15:27:01;22.50;60.40
64718;DHT22;62506;46.070;14.492;2022-11-20T15:29:27;22.50;60.60
64718;DHT22;62506;46.070;14.492;2022-11-20T15:32:03;22.60;61.50
64718;DHT22;62506;46.070;14.492;2022-11-20T15:35:10;22.60;60.50
64718;DHT22;62506;46.070;14.492;2022-11-20T15:37:37;22.50;60.50
64718;DHT22;62506;46.070;14.492;2022-11-20T15:40:06;22.60;61.00
64718;DHT22;62506;46.070;14.492;2022-11-20T15:42:41;22.60;60.90
64718;DHT22;62506;46.070;14.492;2022-11-20T15:45:27;22.50;60.40
64718;DHT22;62506;46.070;14.492;2022-11-20T15:47:53;22.50;60.50
64718;DHT22;62506;46.070;14.492;2022-11-20T15:50:19;22.50;60.50
64718;DHT22;62506;46.070;14.492;2022-11-20T15:52:44;22.40;60.50
64718;DHT22;62506;46.070;14.492;2022-11-20T15:55:10;22.40;61.10
64718;DHT22;62506;46.070;14.492;2022-11-20T15:57:36;22.40;59.90
64718;DHT22;62506;46.070;14.492;2022-11-20T16:00:02;22.40;60.30
64718;DHT22;62506;46.070;14.492;2022-11-20T16:02:27;22.40;60.80
64718;DHT22;62506;46.070;14.492;2022-11-20T16:04:53;22.40;61.60
64718;DHT22;62506;46.070;14.492;2022-11-20T16:07:18;22.40;60.70
64718;DHT22;62506;46.070;14.492;2022-11-20T16:09:44;22.40;60.60
64718;DHT22;62506;46.070;14.492;2022-11-20T16:12:10;22.40;60.20
64718;DHT22;62506;46.070;14.492;2022-11-20T16:14:55;22.50;60.50
64718;DHT22;62506;46.070;14.492;2022-11-20T16:17:39;22.50;60.20
64718;DHT22;62506;46.070;14.492;2022-11-20T16:20:10;22.50;60.00
64718;DHT22;62506;46.070;14.492;2022-11-20T16:22:35;22.50;60.00
64718;DHT22;62506;46.070;14.492;2022-11-20T16:25:01;22.50;60.00
64718;DHT22;62506;46.070;14.492;2022-11-20T16:27:27;22.50;60.00
64718;DHT22;62506;46.070;14.492;2022-11-20T16:29:57;22.50;60.00
64718;DHT22;62506;46.070;14.492;2022-11-20T16:32:42;22.50;60.00
64718;DHT22;62506;46.070;14.492;2022-11-20T16:35:08;22.40;57.20
64718;DHT22;62506;46.070;14.492;2022-11-20T16:37:34;22.40;58.30
64718;DHT22;62506;46.070;14.492;2022-11-20T16:40:00;22.40;59.20
64718;DHT22;62506;46.070;14.492;2022-11-20T16:42:32;22.40;59.40
64718;DHT22;62506;46.070;14.492;2022-11-20T16:44:58;22.40;59.40
64718;DHT22;62506;46.070;14.492;2022-11-20T16:47:24;22.40;59.40
64718;DHT22;62506;46.070;14.492;2022-11-20T16:49:59;22.50;59.40
64718;DHT22;62506;46.070;14.492;2022-11-20T16:52:25;22.50;59.40
64718;DHT22;62506;46.070;14.492;2022-11-20T16:54:52;22.50;59.50
64718;DHT22;62506;46.070;14.492;2022-11-20T16:57:20;22.50;59.50
64718;DHT22;62506;46.070;14.492;2022-11-20T16:59:45;22.50;59.40
64718;DHT22;62506;46.070;14.492;2022-11-20T17:02:11;22.50;59.30
64718;DHT22;62506;46.070;14.492;2022-11-20T17:04:37;22.50;59.30
64718;DHT22;62506;46.070;14.492;2022-11-20T17:07:42;22.50;59.30
64718;DHT22;62506;46.070;14.492;2022-11-20T17:10:09;22.50;59.30
64718;DHT22;62506;46.070;14.492;2022-11-20T17:12:35;22.50;58.60
64718;DHT22;62506;46.070;14.492;2022-11-20T17:15:02;22.50;59.20
64718;DHT22;62506;46.070;14.492;2022-11-20T17:17:28;22.50;59.30
64718;DHT22;62506;46.070;14.492;2022-11-20T17:19:54;22.50;59.10
64718;DHT22;62506;46.070;14.492;2022-11-20T17:22:37;22.50;59.20
64718;DHT22;62506;46.070;14.492;2022-11-20T17:25:23;22.50;59.20
64718;DHT22;62506;46.070;14.492;2022-11-20T17:27:51;22.50;59.20
64718;DHT22;62506;46.070;14.492;2022-11-20T17:30:16;22.50;59.20
64718;DHT22;62506;46.070;14.492;2022-11-20T17:32:42;22.50;59.20
64718;DHT22;62506;46.070;14.492;2022-11-20T17:35:11;22.50;59.30
64718;DHT22;62506;46.070;14.492;2022-11-20T17:37:44;22.40;60.10
64718;DHT22;62506;46.070;14.492;2022-11-20T17:40:11;22.50;59.40
64718;DHT22;62506;46.070;14.492;2022-11-20T17:42:44;22.50;59.30
64718;DHT22;62506;46.070;14.492;2022-11-20T17:46:10;22.50;59.30
64718;DHT22;62506;46.070;14.492;2022-11-20T17:49:24;22.40;59.30
64718;DHT22;62506;46.070;14.492;2022-11-20T17:52:37;22.40;59.30
64718;DHT22;62506;46.070;14.492;2022-11-20T17:55:07;22.40;59.40
64718;DHT22;62506;46.070;14.492;2022-11-20T17:57:33;22.40;59.30
64718;DHT22;62506;46.070;14.492;2022-11-20T18:00:19;22.40;59.40
64718;DHT22;62506;46.070;14.492;2022-11-20T18:03:13;22.40;59.70
64718;DHT22;62506;46.070;14.492;2022-11-20T18:05:39;22.40;59.50
64718;DHT22;62506;46.070;14.492;2022-11-20T18:08:04;22.40;59.40
64718;DHT22;62506;46.070;14.492;2022-11-20T18:16:46;22.40;59.50
64718;DHT22;62506;46.070;14.492;2022-11-20T18:22:58;22.40;59.50
64718;DHT22;62506;46.070;14.492;2022-11-20T18:25:24;22.40;59.60
64718;DHT22;62506;46.070;14.492;2022-11-20T18:28:01;22.40;59.60
64718;DHT22;62506;46.070;14.492;2022-11-20T18:30:27;22.40;59.60
64718;DHT22;62506;46.070;14.492;2022-11-20T18:32:52;22.40;59.50
64718;DHT22;62506;46.070;14.492;2022-11-20T18:35:18;22.40;59.60
64718;DHT22;62506;46.070;14.492;2022-11-20T18:37:45;22.50;59.50